sensor_id;sensor_type;location;lat;lon;timestamp;P1;durP1;ratioP1;P2;durP2;ratioP2
55009;SDS011;40903;51.638;7.528;2022-09-03T00:00:44;278.60;;;266.73;;
55009;SDS011;40903;51.638;7.528;2022-09-03T00:03:26;280.47;;;269.03;;
55009;SDS011;40903;51.638;7.528;2022-09-03T00:12:08;281.53;;;269.83;;
55009;SDS011;40903;51.638;7.528;2022-09-03T00:14:40;267.17;;;255.83;;
55009;SDS011;40903;51.638;7.528;2022-09-03T00:17:15;265.80;;;254.63;;
55009;SDS011;40903;51.638;7.528;2022-09-03T00:19:46;283.87;;;271.43;;
55009;SDS011;40903;51.638;7.528;2022-09-03T00:22:59;254.10;;;243.57;;
55009;SDS011;40903;51.638;7.528;2022-09-03T00:25:36;261.57;;;250.53;;
55009;SDS011;40903;51.638;7.528;2022-09-03T00:28:14;272.43;;;260.80;;
55009;SDS011;40903;51.638;7.528;2022-09-03T00:30:45;290.83;;;278.97;;
55009;SDS011;40903;51.638;7.528;2022-09-03T00:33:21;274.10;;;262.30;;
55009;SDS011;40903;51.638;7.528;2022-09-03T00:38:26;263.97;;;253.03;;
55009;SDS011;40903;51.638;7.528;2022-09-03T00:54:47;243.00;;;232.90;;
55009;SDS011;40903;51.638;7.528;2022-09-03T00:57:27;282.93;;;270.47;;
55009;SDS011;40903;51.638;7.528;2022-09-03T01:02:46;263.03;;;252.40;;
55009;SDS011;40903;51.638;7.528;2022-09-03T01:11:44;237.47;;;227.43;;
55009;SDS011;40903;51.638;7.528;2022-09-03T01:19:30;274.70;;;263.23;;
55009;SDS011;40903;51.638;7.528;2022-09-03T01:22:24;257.47;;;246.47;;
55009;SDS011;40903;51.638;7.528;2022-09-03T01:38:55;274.37;;;263.07;;
55009;SDS011;40903;51.638;7.528;2022-09-03T01:41:43;245.03;;;234.67;;
55009;SDS011;40903;51.638;7.528;2022-09-03T01:44:50;235.50;;;225.50;;
55009;SDS011;40903;51.638;7.528;2022-09-03T01:47:55;231.50;;;222.03;;
55009;SDS011;40903;51.638;7.528;2022-09-03T01:50:41;224.33;;;214.93;;
55009;SDS011;40903;51.638;7.528;2022-09-03T01:58:41;248.63;;;238.30;;
55009;SDS011;40903;51.638;7.528;2022-09-03T02:01:19;253.47;;;242.87;;
55009;SDS011;40903;51.638;7.528;2022-09-03T02:03:51;239.00;;;228.87;;
55009;SDS011;40903;51.638;7.528;2022-09-03T02:06:24;236.17;;;226.10;;
55009;SDS011;40903;51.638;7.528;2022-09-03T02:08:50;249.47;;;239.20;;
55009;SDS011;40903;51.638;7.528;2022-09-03T02:11:15;246.13;;;235.97;;
55009;SDS011;40903;51.638;7.528;2022-09-03T02:13:41;234.17;;;224.30;;
55009;SDS011;40903;51.638;7.528;2022-09-03T02:16:14;263.03;;;252.17;;
55009;SDS011;40903;51.638;7.528;2022-09-03T02:18:42;238.37;;;228.50;;
55009;SDS011;40903;51.638;7.528;2022-09-03T02:21:12;242.20;;;232.33;;
55009;SDS011;40903;51.638;7.528;2022-09-03T02:23:44;230.23;;;220.43;;
55009;SDS011;40903;51.638;7.528;2022-09-03T02:26:10;234.40;;;224.70;;
55009;SDS011;40903;51.638;7.528;2022-09-03T02:28:37;254.40;;;244.07;;
55009;SDS011;40903;51.638;7.528;2022-09-03T02:31:02;234.57;;;225.17;;
55009;SDS011;40903;51.638;7.528;2022-09-03T02:33:29;233.70;;;223.80;;
55009;SDS011;40903;51.638;7.528;2022-09-03T02:35:56;238.03;;;228.53;;
55009;SDS011;40903;51.638;7.528;2022-09-03T02:38:22;238.83;;;228.87;;
55009;SDS011;40903;51.638;7.528;2022-09-03T02:40:52;239.10;;;229.43;;
55009;SDS011;40903;51.638;7.528;2022-09-03T02:46:02;229.07;;;219.87;;
55009;SDS011;40903;51.638;7.528;2022-09-03T02:48:32;233.73;;;223.87;;
55009;SDS011;40903;51.638;7.528;2022-09-03T02:50:58;238.30;;;228.33;;
55009;SDS011;40903;51.638;7.528;2022-09-03T02:53:23;225.80;;;215.87;;
55009;SDS011;40903;51.638;7.528;2022-09-03T02:55:49;222.93;;;213.90;;
55009;SDS011;40903;51.638;7.528;2022-09-03T02:58:14;208.67;;;200.17;;
55009;SDS011;40903;51.638;7.528;2022-09-03T03:00:40;224.67;;;215.67;;
55009;SDS011;40903;51.638;7.528;2022-09-03T03:03:05;237.03;;;227.30;;
55009;SDS011;40903;51.638;7.528;2022-09-03T03:08:16;221.57;;;212.57;;
55009;SDS011;40903;51.638;7.528;2022-09-03T03:10:46;224.87;;;215.83;;
55009;SDS011;40903;51.638;7.528;2022-09-03T03:13:13;235.57;;;225.70;;
55009;SDS011;40903;51.638;7.528;2022-09-03T03:15:39;236.17;;;226.40;;
55009;SDS011;40903;51.638;7.528;2022-09-03T03:18:05;215.40;;;206.73;;
55009;SDS011;40903;51.638;7.528;2022-09-03T03:20:32;219.73;;;210.87;;
55009;SDS011;40903;51.638;7.528;2022-09-03T03:23:00;223.57;;;214.57;;
55009;SDS011;40903;51.638;7.528;2022-09-03T03:25:26;193.97;;;186.20;;
55009;SDS011;40903;51.638;7.528;2022-09-03T03:27:53;199.77;;;191.47;;
55009;SDS011;40903;51.638;7.528;2022-09-03T03:30:21;199.33;;;191.00;;
55009;SDS011;40903;51.638;7.528;2022-09-03T03:32:47;200.63;;;192.23;;
55009;SDS011;40903;51.638;7.528;2022-09-03T03:35:12;227.83;;;218.80;;
55009;SDS011;40903;51.638;7.528;2022-09-03T03:37:38;211.83;;;203.23;;
55009;SDS011;40903;51.638;7.528;2022-09-03T03:40:03;199.57;;;191.17;;
55009;SDS011;40903;51.638;7.528;2022-09-03T03:42:31;211.20;;;202.60;;
55009;SDS011;40903;51.638;7.528;2022-09-03T03:45:00;199.93;;;191.73;;
55009;SDS011;40903;51.638;7.528;2022-09-03T03:47:27;206.97;;;198.33;;
55009;SDS011;40903;51.638;7.528;2022-09-03T03:49:54;210.97;;;202.33;;
55009;SDS011;40903;51.638;7.528;2022-09-03T03:52:20;214.10;;;205.20;;
55009;SDS011;40903;51.638;7.528;2022-09-03T03:54:45;216.13;;;207.17;;
55009;SDS011;40903;51.638;7.528;2022-09-03T03:57:13;209.43;;;200.73;;
55009;SDS011;40903;51.638;7.528;2022-09-03T03:59:38;213.97;;;205.07;;
55009;SDS011;40903;51.638;7.528;2022-09-03T04:02:03;216.50;;;207.93;;
55009;SDS011;40903;51.638;7.528;2022-09-03T04:04:29;204.40;;;196.13;;
55009;SDS011;40903;51.638;7.528;2022-09-03T04:06:54;188.17;;;180.20;;
55009;SDS011;40903;51.638;7.528;2022-09-03T04:09:19;207.17;;;198.43;;
55009;SDS011;40903;51.638;7.528;2022-09-03T04:11:45;209.37;;;200.87;;
55009;SDS011;40903;51.638;7.528;2022-09-03T04:14:10;198.23;;;190.17;;
55009;SDS011;40903;51.638;7.528;2022-09-03T04:16:35;200.53;;;192.40;;
55009;SDS011;40903;51.638;7.528;2022-09-03T04:19:01;195.33;;;187.27;;
55009;SDS011;40903;51.638;7.528;2022-09-03T04:21:27;198.00;;;189.83;;
55009;SDS011;40903;51.638;7.528;2022-09-03T04:23:54;192.40;;;184.87;;
55009;SDS011;40903;51.638;7.528;2022-09-03T04:26:27;211.27;;;202.47;;
55009;SDS011;40903;51.638;7.528;2022-09-03T04:28:55;188.43;;;180.73;;
55009;SDS011;40903;51.638;7.528;2022-09-03T04:31:21;186.30;;;178.67;;
55009;SDS011;40903;51.638;7.528;2022-09-03T04:33:47;208.63;;;200.03;;
55009;SDS011;40903;51.638;7.528;2022-09-03T04:36:14;198.53;;;190.50;;
55009;SDS011;40903;51.638;7.528;2022-09-03T04:38:41;190.80;;;182.90;;
55009;SDS011;40903;51.638;7.528;2022-09-03T04:41:09;201.97;;;193.83;;
55009;SDS011;40903;51.638;7.528;2022-09-03T04:43:36;195.07;;;186.77;;
55009;SDS011;40903;51.638;7.528;2022-09-03T04:46:03;208.73;;;199.97;;
55009;SDS011;40903;51.638;7.528;2022-09-03T04:48:33;199.87;;;191.67;;
55009;SDS011;40903;51.638;7.528;2022-09-03T04:51:07;186.80;;;179.23;;
55009;SDS011;40903;51.638;7.528;2022-09-03T04:53:35;189.87;;;182.03;;
55009;SDS011;40903;51.638;7.528;2022-09-03T04:56:03;198.80;;;190.23;;
55009;SDS011;40903;51.638;7.528;2022-09-03T04:58:37;195.63;;;187.70;;
55009;SDS011;40903;51.638;7.528;2022-09-03T05:01:09;196.23;;;188.07;;
55009;SDS011;40903;51.638;7.528;2022-09-03T05:03:35;195.27;;;187.20;;
55009;SDS011;40903;51.638;7.528;2022-09-03T05:06:01;227.53;;;218.17;;
55009;SDS011;40903;51.638;7.528;2022-09-03T05:08:27;205.93;;;197.27;;
55009;SDS011;40903;51.638;7.528;2022-09-03T05:10:59;202.23;;;193.73;;
55009;SDS011;40903;51.638;7.528;2022-09-03T05:13:25;193.57;;;185.40;;
55009;SDS011;40903;51.638;7.528;2022-09-03T05:15:52;220.70;;;211.50;;
55009;SDS011;40903;51.638;7.528;2022-09-03T05:18:23;207.47;;;198.57;;
55009;SDS011;40903;51.638;7.528;2022-09-03T05:20:56;186.37;;;178.53;;
55009;SDS011;40903;51.638;7.528;2022-09-03T05:23:23;200.37;;;191.83;;
55009;SDS011;40903;51.638;7.528;2022-09-03T05:26:00;216.33;;;207.47;;
55009;SDS011;40903;51.638;7.528;2022-09-03T05:28:27;194.40;;;186.07;;
55009;SDS011;40903;51.638;7.528;2022-09-03T05:31:04;202.07;;;193.27;;
55009;SDS011;40903;51.638;7.528;2022-09-03T05:33:32;226.80;;;217.30;;
55009;SDS011;40903;51.638;7.528;2022-09-03T05:36:03;208.37;;;199.77;;
55009;SDS011;40903;51.638;7.528;2022-09-03T05:38:30;211.23;;;202.23;;
55009;SDS011;40903;51.638;7.528;2022-09-03T05:41:03;221.27;;;212.07;;
55009;SDS011;40903;51.638;7.528;2022-09-03T05:43:31;210.83;;;202.00;;
55009;SDS011;40903;51.638;7.528;2022-09-03T05:45:57;215.90;;;206.93;;
55009;SDS011;40903;51.638;7.528;2022-09-03T05:48:27;226.50;;;216.90;;
55009;SDS011;40903;51.638;7.528;2022-09-03T05:50:57;238.63;;;228.60;;
55009;SDS011;40903;51.638;7.528;2022-09-03T05:53:27;207.20;;;198.27;;
55009;SDS011;40903;51.638;7.528;2022-09-03T05:56:00;247.20;;;237.27;;
55009;SDS011;40903;51.638;7.528;2022-09-03T05:58:34;237.10;;;227.30;;
55009;SDS011;40903;51.638;7.528;2022-09-03T06:01:17;212.33;;;203.40;;
55009;SDS011;40903;51.638;7.528;2022-09-03T06:03:46;224.13;;;215.03;;
55009;SDS011;40903;51.638;7.528;2022-09-03T06:06:14;228.33;;;219.03;;
55009;SDS011;40903;51.638;7.528;2022-09-03T06:08:40;234.07;;;224.13;;
55009;SDS011;40903;51.638;7.528;2022-09-03T06:11:06;236.77;;;227.00;;
55009;SDS011;40903;51.638;7.528;2022-09-03T06:13:33;251.60;;;241.00;;
55009;SDS011;40903;51.638;7.528;2022-09-03T06:16:01;235.25;;;225.55;;
55009;SDS011;40903;51.638;7.528;2022-09-03T07:39:31;359.30;;;343.73;;
55009;SDS011;40903;51.638;7.528;2022-09-03T07:42:01;342.33;;;327.33;;
55009;SDS011;40903;51.638;7.528;2022-09-03T07:44:27;349.87;;;334.70;;
55009;SDS011;40903;51.638;7.528;2022-09-03T07:46:52;343.43;;;328.50;;
55009;SDS011;40903;51.638;7.528;2022-09-03T07:49:18;338.43;;;323.33;;
55009;SDS011;40903;51.638;7.528;2022-09-03T07:51:52;318.10;;;304.07;;
55009;SDS011;40903;51.638;7.528;2022-09-03T07:54:18;341.90;;;326.53;;
55009;SDS011;40903;51.638;7.528;2022-09-03T07:56:45;327.63;;;313.07;;
55009;SDS011;40903;51.638;7.528;2022-09-03T07:59:15;301.00;;;287.63;;
55009;SDS011;40903;51.638;7.528;2022-09-03T08:01:45;297.47;;;284.03;;
55009;SDS011;40903;51.638;7.528;2022-09-03T08:04:13;321.73;;;307.70;;
55009;SDS011;40903;51.638;7.528;2022-09-03T08:06:43;296.40;;;283.23;;
55009;SDS011;40903;51.638;7.528;2022-09-03T08:09:12;299.50;;;285.87;;
55009;SDS011;40903;51.638;7.528;2022-09-03T08:11:39;331.43;;;316.73;;
55009;SDS011;40903;51.638;7.528;2022-09-03T08:14:08;296.53;;;283.57;;
55009;SDS011;40903;51.638;7.528;2022-09-03T08:16:44;293.90;;;280.30;;
55009;SDS011;40903;51.638;7.528;2022-09-03T08:19:14;297.03;;;283.63;;
55009;SDS011;40903;51.638;7.528;2022-09-03T08:21:42;296.40;;;282.80;;
55009;SDS011;40903;51.638;7.528;2022-09-03T08:24:07;312.53;;;298.70;;
55009;SDS011;40903;51.638;7.528;2022-09-03T08:26:35;304.57;;;290.43;;
55009;SDS011;40903;51.638;7.528;2022-09-03T08:29:07;285.70;;;272.33;;
55009;SDS011;40903;51.638;7.528;2022-09-03T08:31:33;297.13;;;283.77;;
55009;SDS011;40903;51.638;7.528;2022-09-03T08:34:00;280.93;;;267.70;;
55009;SDS011;40903;51.638;7.528;2022-09-03T08:36:29;292.77;;;276.97;;
55009;SDS011;40903;51.638;7.528;2022-09-03T08:38:59;289.27;;;273.30;;
55009;SDS011;40903;51.638;7.528;2022-09-03T08:47:13;302.10;;;286.10;;
55009;SDS011;40903;51.638;7.528;2022-09-03T08:52:50;255.60;;;243.03;;
55009;SDS011;40903;51.638;7.528;2022-09-03T08:55:27;279.63;;;255.73;;
55009;SDS011;40903;51.638;7.528;2022-09-03T08:58:03;237.97;;;220.60;;
55009;SDS011;40903;51.638;7.528;2022-09-03T09:00:59;238.23;;;226.37;;
55009;SDS011;40903;51.638;7.528;2022-09-03T09:14:39;194.90;;;185.27;;
55009;SDS011;40903;51.638;7.528;2022-09-03T09:22:45;128.70;;;121.50;;
55009;SDS011;40903;51.638;7.528;2022-09-03T09:25:18;120.80;;;114.97;;
55009;SDS011;40903;51.638;7.528;2022-09-03T09:28:16;122.37;;;116.17;;
55009;SDS011;40903;51.638;7.528;2022-09-03T09:30:49;100.00;;;94.60;;
55009;SDS011;40903;51.638;7.528;2022-09-03T09:33:16;86.33;;;81.73;;
55009;SDS011;40903;51.638;7.528;2022-09-03T09:35:44;81.87;;;77.57;;
55009;SDS011;40903;51.638;7.528;2022-09-03T09:38:10;85.70;;;81.60;;
55009;SDS011;40903;51.638;7.528;2022-09-03T09:40:38;78.87;;;75.00;;
55009;SDS011;40903;51.638;7.528;2022-09-03T09:43:12;72.03;;;68.33;;
55009;SDS011;40903;51.638;7.528;2022-09-03T09:45:46;67.80;;;64.27;;
55009;SDS011;40903;51.638;7.528;2022-09-03T09:48:26;63.80;;;60.27;;
55009;SDS011;40903;51.638;7.528;2022-09-03T09:51:08;61.17;;;58.13;;
55009;SDS011;40903;51.638;7.528;2022-09-03T09:53:36;51.77;;;49.27;;
55009;SDS011;40903;51.638;7.528;2022-09-03T09:56:03;42.77;;;40.73;;
55009;SDS011;40903;51.638;7.528;2022-09-03T09:58:30;43.50;;;41.50;;
55009;SDS011;40903;51.638;7.528;2022-09-03T10:01:04;40.67;;;38.67;;
55009;SDS011;40903;51.638;7.528;2022-09-03T10:03:48;47.97;;;45.43;;
55009;SDS011;40903;51.638;7.528;2022-09-03T10:06:24;35.07;;;33.20;;
55009;SDS011;40903;51.638;7.528;2022-09-03T10:11:37;36.43;;;34.53;;
55009;SDS011;40903;51.638;7.528;2022-09-03T10:14:08;29.40;;;27.60;;
55009;SDS011;40903;51.638;7.528;2022-09-03T10:16:41;30.33;;;28.73;;
55009;SDS011;40903;51.638;7.528;2022-09-03T10:19:19;31.77;;;30.07;;
55009;SDS011;40903;51.638;7.528;2022-09-03T10:22:01;29.23;;;27.90;;
55009;SDS011;40903;51.638;7.528;2022-09-03T10:27:21;31.57;;;30.20;;
55009;SDS011;40903;51.638;7.528;2022-09-03T10:29:47;25.07;;;23.67;;
55009;SDS011;40903;51.638;7.528;2022-09-03T10:38:06;20.63;;;19.47;;
55009;SDS011;40903;51.638;7.528;2022-09-03T10:49:05;28.80;;;27.37;;
55009;SDS011;40903;51.638;7.528;2022-09-03T10:51:56;24.47;;;22.77;;
55009;SDS011;40903;51.638;7.528;2022-09-03T10:54:37;18.83;;;18.00;;
55009;SDS011;40903;51.638;7.528;2022-09-03T11:00:20;22.00;;;21.07;;
55009;SDS011;40903;51.638;7.528;2022-09-03T11:08:22;23.93;;;22.87;;
55009;SDS011;40903;51.638;7.528;2022-09-03T11:11:09;18.23;;;17.40;;
55009;SDS011;40903;51.638;7.528;2022-09-03T14:54:48;33.10;;;30.93;;
55009;SDS011;40903;51.638;7.528;2022-09-03T15:00:04;30.30;;;28.87;;
55009;SDS011;40903;51.638;7.528;2022-09-03T15:08:42;27.67;;;26.30;;
55009;SDS011;40903;51.638;7.528;2022-09-03T15:11:18;22.83;;;21.53;;
55009;SDS011;40903;51.638;7.528;2022-09-03T15:14:01;33.70;;;31.80;;
55009;SDS011;40903;51.638;7.528;2022-09-03T15:22:33;25.47;;;24.00;;
55009;SDS011;40903;51.638;7.528;2022-09-03T15:31:00;18.70;;;17.63;;
55009;SDS011;40903;51.638;7.528;2022-09-03T15:33:42;20.43;;;19.23;;
55009;SDS011;40903;51.638;7.528;2022-09-03T15:36:20;20.03;;;19.07;;
55009;SDS011;40903;51.638;7.528;2022-09-03T15:41:32;27.43;;;26.13;;
55009;SDS011;40903;51.638;7.528;2022-09-03T15:44:17;22.00;;;20.97;;
55009;SDS011;40903;51.638;7.528;2022-09-03T15:49:16;22.13;;;21.23;;
55009;SDS011;40903;51.638;7.528;2022-09-03T15:54:45;28.47;;;26.97;;
55009;SDS011;40903;51.638;7.528;2022-09-03T15:57:19;26.40;;;25.03;;
55009;SDS011;40903;51.638;7.528;2022-09-03T16:02:41;27.60;;;26.20;;
55009;SDS011;40903;51.638;7.528;2022-09-03T16:07:48;25.77;;;24.60;;
55009;SDS011;40903;51.638;7.528;2022-09-03T16:10:22;35.67;;;34.03;;
55009;SDS011;40903;51.638;7.528;2022-09-03T16:16:04;33.97;;;32.30;;
55009;SDS011;40903;51.638;7.528;2022-09-03T16:18:35;35.37;;;33.67;;
55009;SDS011;40903;51.638;7.528;2022-09-03T16:21:31;42.30;;;40.40;;
55009;SDS011;40903;51.638;7.528;2022-09-03T16:26:47;40.80;;;38.97;;
55009;SDS011;40903;51.638;7.528;2022-09-03T16:29:15;26.47;;;25.20;;
55009;SDS011;40903;51.638;7.528;2022-09-03T16:31:47;32.77;;;31.23;;
55009;SDS011;40903;51.638;7.528;2022-09-03T16:45:02;27.50;;;26.03;;
55009;SDS011;40903;51.638;7.528;2022-09-03T16:55:47;49.33;;;46.80;;
55009;SDS011;40903;51.638;7.528;2022-09-03T17:17:39;56.17;;;53.33;;
55009;SDS011;40903;51.638;7.528;2022-09-03T17:20:36;64.27;;;61.07;;
55009;SDS011;40903;51.638;7.528;2022-09-03T17:26:10;70.57;;;66.87;;
55009;SDS011;40903;51.638;7.528;2022-09-03T17:29:02;61.03;;;57.80;;
55009;SDS011;40903;51.638;7.528;2022-09-03T17:34:01;92.07;;;87.27;;
55009;SDS011;40903;51.638;7.528;2022-09-03T17:36:37;70.50;;;66.93;;
55009;SDS011;40903;51.638;7.528;2022-09-03T17:39:30;84.37;;;80.33;;
55009;SDS011;40903;51.638;7.528;2022-09-03T17:45:36;116.23;;;110.57;;
55009;SDS011;40903;51.638;7.528;2022-09-03T17:50:45;87.97;;;83.27;;
55009;SDS011;40903;51.638;7.528;2022-09-03T17:53:20;111.67;;;105.80;;
55009;SDS011;40903;51.638;7.528;2022-09-03T17:55:52;119.47;;;112.93;;
55009;SDS011;40903;51.638;7.528;2022-09-03T17:58:31;110.50;;;104.77;;
55009;SDS011;40903;51.638;7.528;2022-09-03T18:03:40;122.37;;;116.50;;
55009;SDS011;40903;51.638;7.528;2022-09-03T18:09:23;143.67;;;136.37;;
55009;SDS011;40903;51.638;7.528;2022-09-03T18:15:07;147.20;;;139.53;;
55009;SDS011;40903;51.638;7.528;2022-09-03T18:17:40;153.33;;;145.30;;
55009;SDS011;40903;51.638;7.528;2022-09-03T18:20:11;149.83;;;142.43;;
55009;SDS011;40903;51.638;7.528;2022-09-03T18:23:01;167.63;;;159.20;;
55009;SDS011;40903;51.638;7.528;2022-09-03T18:25:53;176.50;;;167.40;;
55009;SDS011;40903;51.638;7.528;2022-09-03T18:31:46;188.87;;;179.60;;
55009;SDS011;40903;51.638;7.528;2022-09-03T18:34:32;197.17;;;187.20;;
55009;SDS011;40903;51.638;7.528;2022-09-03T18:37:21;203.27;;;193.10;;
55009;SDS011;40903;51.638;7.528;2022-09-03T18:40:08;217.93;;;206.87;;
55009;SDS011;40903;51.638;7.528;2022-09-03T18:46:01;225.00;;;214.00;;
55009;SDS011;40903;51.638;7.528;2022-09-03T18:51:57;234.67;;;222.80;;
55009;SDS011;40903;51.638;7.528;2022-09-03T18:55:09;253.17;;;240.63;;
55009;SDS011;40903;51.638;7.528;2022-09-03T19:01:17;264.50;;;252.00;;
55009;SDS011;40903;51.638;7.528;2022-09-03T19:07:07;245.83;;;233.67;;
55009;SDS011;40903;51.638;7.528;2022-09-03T19:13:31;250.87;;;238.77;;
55009;SDS011;40903;51.638;7.528;2022-09-03T19:24:53;280.20;;;267.20;;
55009;SDS011;40903;51.638;7.528;2022-09-03T19:34:00;275.97;;;263.40;;
55009;SDS011;40903;51.638;7.528;2022-09-03T19:39:59;254.07;;;242.17;;
55009;SDS011;40903;51.638;7.528;2022-09-03T19:49:05;280.47;;;267.73;;
55009;SDS011;40903;51.638;7.528;2022-09-03T19:52:10;282.90;;;270.17;;
55009;SDS011;40903;51.638;7.528;2022-09-03T19:55:02;279.10;;;266.43;;
55009;SDS011;40903;51.638;7.528;2022-09-03T19:57:47;263.77;;;251.63;;
55009;SDS011;40903;51.638;7.528;2022-09-03T20:00:41;296.40;;;283.20;;
55009;SDS011;40903;51.638;7.528;2022-09-03T20:03:25;264.03;;;251.97;;
55009;SDS011;40903;51.638;7.528;2022-09-03T20:06:09;289.33;;;276.47;;
55009;SDS011;40903;51.638;7.528;2022-09-03T20:08:55;266.70;;;253.97;;
55009;SDS011;40903;51.638;7.528;2022-09-03T20:11:47;284.00;;;271.13;;
55009;SDS011;40903;51.638;7.528;2022-09-03T20:14:13;266.57;;;254.33;;
55009;SDS011;40903;51.638;7.528;2022-09-03T20:16:48;282.87;;;269.60;;
55009;SDS011;40903;51.638;7.528;2022-09-03T20:19:34;295.03;;;281.83;;
55009;SDS011;40903;51.638;7.528;2022-09-03T20:25:40;316.93;;;302.40;;
55009;SDS011;40903;51.638;7.528;2022-09-03T20:30:46;326.50;;;311.30;;
55009;SDS011;40903;51.638;7.528;2022-09-03T20:33:25;329.00;;;313.37;;
55009;SDS011;40903;51.638;7.528;2022-09-03T20:38:54;330.00;;;314.40;;
55009;SDS011;40903;51.638;7.528;2022-09-03T20:41:30;342.30;;;326.37;;
55009;SDS011;40903;51.638;7.528;2022-09-03T20:52:45;371.90;;;354.60;;
55009;SDS011;40903;51.638;7.528;2022-09-03T20:55:22;400.43;;;381.23;;
55009;SDS011;40903;51.638;7.528;2022-09-03T20:58:56;392.80;;;373.47;;
55009;SDS011;40903;51.638;7.528;2022-09-03T21:01:09;407.97;;;388.90;;
55009;SDS011;40903;51.638;7.528;2022-09-03T21:06:50;405.97;;;386.97;;
55009;SDS011;40903;51.638;7.528;2022-09-03T21:12:23;408.07;;;388.40;;
55009;SDS011;40903;51.638;7.528;2022-09-03T21:17:28;428.23;;;407.90;;
55009;SDS011;40903;51.638;7.528;2022-09-03T21:23:06;423.03;;;402.83;;
55009;SDS011;40903;51.638;7.528;2022-09-03T21:26:01;424.80;;;404.50;;
55009;SDS011;40903;51.638;7.528;2022-09-03T21:28:38;456.60;;;435.33;;
55009;SDS011;40903;51.638;7.528;2022-09-03T21:31:14;423.73;;;403.93;;
55009;SDS011;40903;51.638;7.528;2022-09-03T21:33:49;429.83;;;409.53;;
55009;SDS011;40903;51.638;7.528;2022-09-03T21:36:23;440.43;;;419.67;;
55009;SDS011;40903;51.638;7.528;2022-09-03T21:39:02;418.93;;;399.00;;
55009;SDS011;40903;51.638;7.528;2022-09-03T21:47:08;434.60;;;413.80;;
55009;SDS011;40903;51.638;7.528;2022-09-03T21:49:37;447.60;;;426.50;;
55009;SDS011;40903;51.638;7.528;2022-09-03T21:52:11;424.10;;;403.83;;
55009;SDS011;40903;51.638;7.528;2022-09-03T21:54:39;451.43;;;429.60;;
55009;SDS011;40903;51.638;7.528;2022-09-03T21:57:08;437.10;;;416.33;;
55009;SDS011;40903;51.638;7.528;2022-09-03T21:59:49;421.63;;;401.70;;
55009;SDS011;40903;51.638;7.528;2022-09-03T22:02:25;438.53;;;418.10;;
55009;SDS011;40903;51.638;7.528;2022-09-03T22:04:53;426.70;;;406.57;;
55009;SDS011;40903;51.638;7.528;2022-09-03T22:10:30;434.70;;;414.30;;
55009;SDS011;40903;51.638;7.528;2022-09-03T22:15:48;429.53;;;409.00;;
55009;SDS011;40903;51.638;7.528;2022-09-03T22:18:22;448.87;;;427.97;;
55009;SDS011;40903;51.638;7.528;2022-09-03T22:20:55;437.13;;;417.40;;
55009;SDS011;40903;51.638;7.528;2022-09-03T22:23:36;431.63;;;411.40;;
55009;SDS011;40903;51.638;7.528;2022-09-03T22:29:38;424.33;;;405.00;;
55009;SDS011;40903;51.638;7.528;2022-09-03T22:35:15;437.87;;;417.73;;
55009;SDS011;40903;51.638;7.528;2022-09-03T22:40:45;417.37;;;397.83;;
55009;SDS011;40903;51.638;7.528;2022-09-03T22:43:30;436.00;;;416.00;;
55009;SDS011;40903;51.638;7.528;2022-09-03T22:46:13;436.47;;;416.33;;
55009;SDS011;40903;51.638;7.528;2022-09-03T22:49:04;428.13;;;408.20;;
55009;SDS011;40903;51.638;7.528;2022-09-03T22:51:41;425.30;;;405.70;;
55009;SDS011;40903;51.638;7.528;2022-09-03T22:56:46;432.87;;;412.23;;
55009;SDS011;40903;51.638;7.528;2022-09-03T22:59:14;429.53;;;409.83;;
55009;SDS011;40903;51.638;7.528;2022-09-03T23:07:27;432.03;;;412.23;;
55009;SDS011;40903;51.638;7.528;2022-09-03T23:10:07;417.73;;;398.37;;
55009;SDS011;40903;51.638;7.528;2022-09-03T23:12:49;426.30;;;406.70;;
55009;SDS011;40903;51.638;7.528;2022-09-03T23:15:24;419.53;;;400.10;;
55009;SDS011;40903;51.638;7.528;2022-09-03T23:18:13;435.50;;;415.57;;
55009;SDS011;40903;51.638;7.528;2022-09-03T23:23:41;412.37;;;393.20;;
55009;SDS011;40903;51.638;7.528;2022-09-03T23:26:15;429.03;;;409.57;;
55009;SDS011;40903;51.638;7.528;2022-09-03T23:31:43;415.13;;;396.20;;
55009;SDS011;40903;51.638;7.528;2022-09-03T23:34:09;456.17;;;435.73;;
55009;SDS011;40903;51.638;7.528;2022-09-03T23:36:38;439.27;;;418.93;;
55009;SDS011;40903;51.638;7.528;2022-09-03T23:48:01;444.07;;;424.43;;
55009;SDS011;40903;51.638;7.528;2022-09-03T23:53:50;436.67;;;417.20;;
